Aviation Digital Data Service (ADDS)

Output produced by METARs form (0904 UTC 24 January 2017)
found at http://www.aviationweather.gov/adds/metars/
 
KJST 240854Z AUTO 32008KT 1 3/4SM -SN BR OVC004 M01/M01 A2951 RMK AO2 SLP014 P0000 60000 T10061006 55001 TSNO
KJST 240754Z AUTO 32008KT 1 1/4SM -SN BR OVC003 M01/M01 A2951 RMK AO2 SLP012 P0000 T10061006 TSNO
KJST 240715Z AUTO 32006KT 1 3/4SM -SN BR OVC003 M01/M01 A2951 RMK AO2 P0000 T10061006 TSNO
KJST 240708Z AUTO 33006KT 2SM -SN BR BKN003 OVC007 M01/M01 A2951 RMK AO2 P0000 T10061006 TSNO
KJST 240654Z AUTO 33004KT 1 1/4SM -SN BR BKN003 OVC008 M01/M01 A2951 RMK AO2 SLP010 P0000 T10061006 TSNO
KJST 240644Z AUTO 33005KT 1 1/2SM -SN BR BKN004 OVC015 M01/M01 A2951 RMK AO2 P0000 T10061006 TSNO
KJST 240630Z AUTO 32003KT 2SM -SN BR BKN004 OVC021 M01/M01 A2951 RMK AO2 P0000 T10061006 TSNO
KJST 240608Z AUTO 36005KT 1 1/2SM -SN BR BKN004 OVC017 M01/M01 A2951 RMK AO2 P0000 T10061006 TSNO
KJST 240554Z AUTO 01004KT 2 1/2SM -SN BR OVC004 M01/M01 A2952 RMK AO2 SLP013 P0000 60000 I6001 T10061006 11006 21006 58002 TSNO
KJST 240527Z AUTO 01005KT 3SM -SN BR BKN003 OVC024 M01/M01 A2952 RMK AO2 P0000 T10061006 TSNO
KJST 240454Z AUTO 03005KT 2SM -SN BR SCT004 OVC023 M01/M01 A2953 RMK AO2 SNB0358 SLP019 P0000 T10061006 400721006 TSNO
KJST 240354Z AUTO 04005KT 2 1/2SM BR OVC003 M01/M01 A2952 RMK AO2 SLP015 I1000 T10061006 TSNO
KJST 240340Z AUTO 05006KT 3SM BR OVC003 M01/M01 A2952 RMK AO2 T10061006 TSNO
KJST 240323Z AUTO 04007KT 2SM BR OVC003 M01/M01 A2951 RMK AO2 T10061006 TSNO
KJST 240309Z AUTO 06006KT 3SM BR OVC003 M01/M01 A2951 RMK AO2 T10061006 TSNO
KJST 240259Z AUTO 07006KT 1 3/4SM BR OVC003 M01/M01 A2951 RMK AO2 T10061006 TSNO
KJST 240254Z AUTO 07008KT 3SM BR OVC003 M01/M01 A2951 RMK AO2 SNE14 SLP012 P0000 60000 I1001 I3001 T10061006 55002 TSNO
KJST 240220Z AUTO 07008G17KT 3SM BR OVC003 M01/M01 A2951 RMK AO2 SNE14 P0000 T10061006 TSNO
KJST 240154Z AUTO 07007KT 1 1/2SM -SN BR OVC002 M01/M01 A2951 RMK AO2 SNB0055 SLP009 P0000 T10061006 TSNO
KJST 240122Z AUTO 06008KT 1 1/2SM -SN BR OVC004 M01/M01 A2952 RMK AO2 SNB0055 P0000 T10061006 TSNO
KJST 240103Z AUTO 06006KT 2 1/2SM -SN BR BKN004 OVC008 M01/M01 A2952 RMK AO2 SNB0055 P0000 T10061006 TSNO
KJST 240054Z AUTO 06006KT 3SM BR BKN004 OVC010 M01/M01 A2952 RMK AO2 UPB21E29SNB2356E21 SLP012 P0000 T10061006 TSNO
KJST 240049Z AUTO 05007KT 4SM BR BKN004 OVC010 M01/M01 A2952 RMK AO2 UPB21E29SNB2356E21 P0000 TSNO
KJST 240031Z AUTO 07007KT 4SM BR BKN005 OVC009 M01/M01 A2952 RMK AO2 UPB21E29SNB2356E21 P0000 T10061006 TSNO
KJST 232354Z AUTO 08009G17KT 5SM BR BKN003 OVC008 M01/M01 A2952 RMK AO2 UPB39E44SNE30 SLP011 P0000 60021 T10061006 10022 21006 53004 TSNO
KJST 232344Z AUTO 06010G16KT 2 1/2SM BR OVC003 M01/M01 A2952 RMK AO2 UPB39E44SNE30 P0000 T10061006 TSNO
KJST 232320Z AUTO 06007KT 1 1/4SM -SN BR OVC003 00/00 A2952 RMK AO2 P0000 T00000000 TSNO
KJST 232309Z AUTO 06009KT 3/4SM -SN BR OVC004 00/00 A2952 RMK AO2 P0000 T00000000 TSNO
KJST 232254Z AUTO 07009G17KT 1SM -SN BR OVC004 00/00 A2952 RMK AO2 SLP009 P0000 T00000000 TSNO
KJST 232246Z AUTO 06009KT 1SM -SN BR OVC004 00/00 A2951 RMK AO2 P0000 T00000000 TSNO
KJST 232231Z AUTO 07007KT 3/4SM -SN BR VV004 00/00 A2951 RMK AO2 P0000 T00000000 TSNO
KJST 232219Z AUTO 07006KT 1SM -SN BR VV004 00/00 A2951 RMK AO2 P0000 T00000000 TSNO
KJST 232154Z AUTO 07007KT 1/4SM -SN FG VV003 00/00 A2950 RMK AO2 SLP004 P0001 T00000000 TSNO
KJST 232149Z AUTO 06008KT 1/2SM -SN FG VV003 00/00 A2950 RMK AO2 P0001 TSNO
KJST 232131Z AUTO 07006KT 1/4SM -SN FG VV003 01/01 A2950 RMK AO2 P0000 T00060006 TSNO
KJST 232118Z AUTO 07009KT 1/2SM -SN FG OVC002 01/01 A2950 RMK AO2 P0000 T00060006 TSNO
KJST 232111Z AUTO 06009G17KT 1/4SM +SN FG SCT004 OVC008 01/01 A2950 RMK AO2 P0000 T00060006 TSNO
KJST 232058Z AUTO 07011KT 3/4SM -SN BR BKN004 OVC034 01/01 A2950 RMK AO2 P0000 T00060006 TSNO
KJST 232054Z AUTO 07009KT 1 3/4SM -SN BR SCT004 OVC041 01/01 A2950 RMK AO2 RAE49SNB49 SLP001 P0006 60020 T00060006 53009 TSNO
KJST 232021Z AUTO 07009KT 3SM RA BR FEW008 BKN031 OVC050 01/01 A2949 RMK AO2 P0005 T00110011 TSNO
KJST 232012Z AUTO 07008KT 2 1/2SM RA BR FEW008 SCT014 OVC019 01/01 A2949 RMK AO2 P0004 T00110011 TSNO
KJST 232004Z AUTO 07007KT 2 1/2SM +RA BR FEW009 BKN014 OVC021 02/01 A2949 RMK AO2 P0004 T00170011 TSNO
KJST 231954Z AUTO 08006KT 4SM RA BR FEW010 BKN014 OVC021 02/01 A2949 RMK AO2 SLP997 P0007 T00170011 TSNO
KJST 231923Z AUTO 08008KT 7SM -RA FEW007 BKN013 OVC019 02/02 A2948 RMK AO2 P0003 T00220017 TSNO
KJST 231916Z AUTO 08009KT 8SM -RA SCT011 OVC017 02/02 A2948 RMK AO2 P0003 T00220017 TSNO
KJST 231854Z AUTO 08009G16KT 3SM RA BR BKN007 OVC012 02/02 A2948 RMK AO2 SLP993 P0007 T00220017 TSNO
KJST 231754Z AUTO 07011G19KT 6SM -RA BR OVC007 02/02 A2947 RMK AO2 PK WND 07029/1711 RAB16 SLP991 P0000 60011 T00220022 10050 20022 56012 TSNO
KJST 231654Z AUTO 07018G26KT 7SM OVC008 03/02 A2947 RMK AO2 PK WND 07026/1653 RAE53 SLP990 P0000 T00280022 TSNO
KJST 231554Z AUTO 08016G23KT 9SM -RA BKN007 OVC013 03/03 A2950 RMK AO2 PK WND 06027/1535 SLP999 P0003 T00330028 TSNO
KJST 231454Z AUTO 07012G20KT 4SM -RA BR BKN007 OVC012 04/03 A2951 RMK AO2 PK WND 08026/1418 SLP002 P0003 60008 T00390033 50000 TSNO
KJST 231438Z AUTO 07012G22KT 5SM RA BR OVC009 04/03 A2952 RMK AO2 PK WND 08026/1418 P0002 T00390033 TSNO
KJST 231354Z AUTO 07012G20KT 9SM -RA SCT007 BKN012 OVC017 04/04 A2951 RMK AO2 SLP004 P0002 T00390039 TSNO
KJST 231339Z AUTO 07014G19KT 6SM -RA BR SCT007 OVC014 04/04 A2952 RMK AO2 P0002 T00390039 TSNO
KJST 231330Z AUTO 07011G22KT 4SM -RA BR BKN007 BKN014 OVC019 04/04 A2952 RMK AO2 P0002 T00390039 TSNO
KJST 231318Z AUTO 08013G22KT 5SM -RA BR SCT007 OVC013 04/04 A2952 RMK AO2 P0001 T00390039 TSNO
KJST 231311Z AUTO 08012G20KT 6SM -RA BR BKN007 OVC013 04/04 A2953 RMK AO2 P0001 T00390039 TSNO
KJST 231254Z AUTO 07011G22KT 5SM -RA BR FEW005 BKN011 OVC016 04/04 A2953 RMK AO2 SLP007 P0003 T00440039 TSNO
KJST 231232Z AUTO 08014G21KT 6SM -RA BR BKN008 OVC015 04/04 A2952 RMK AO2 CIG 005V011 P0002 T00440044 TSNO
KJST 231208Z AUTO 09013G25KT 6SM -RA BR SCT008 OVC014 05/04 A2952 RMK AO2 P0001 T00500044 TSNO
KJST 231154Z AUTO 07014G25KT 3SM -RA BR BKN007 OVC015 05/04 A2951 RMK AO2 PK WND 10028/1105 SLP000 P0002 60005 70006 T00500044 10067 20050 55008 TSNO
KJST 231145Z AUTO 08015G25KT 3SM -RA BR BKN007 OVC015 05/05 A2951 RMK AO2 PK WND 10028/1105 P0002 T00500050 TSNO
KJST 231118Z AUTO 09014G26KT 2 1/2SM -RA BR BKN008 OVC013 06/05 A2951 RMK AO2 PK WND 10028/1105 CIG 005V012 P0001 T00560050 TSNO
KJST 231054Z AUTO 09016G24KT 4SM -RA BR BKN006 OVC012 06/05 A2950 RMK AO2 PK WND 09027/0957 CIG 003V010 SLP997 P0001 T00560050 TSNO
KJST 230954Z AUTO 09016G26KT 5SM -RA BR OVC006 06/06 A2952 RMK AO2 PK WND 09029/0933 CIG 004V012 SLP003 P0001 T00610056 TSNO
KJST 230854Z AUTO 09014G28KT 070V130 8SM -RA OVC005 07/06 A2953 RMK AO2 PK WND 09028/0849 RAB09E35B51 SLP006 P0000 60001 T00670061 58005 TSNO
KJST 230844Z AUTO 10013G24KT 9SM OVC005 07/07 A2954 RMK AO2 PK WND 10028/0830 RAB09E35 CIG 003V008 P0000 T00670067 TSNO
KJST 230830Z AUTO 09017G28KT 5SM -RA BR OVC004 07/07 A2954 RMK AO2 PK WND 10028/0830 RAB09 CIG 002V008 P0000 T00670067 TSNO
KJST 230803Z AUTO 10015G22KT 3SM BR OVC002 07/07 A2954 RMK AO2 T00670067 TSNO
KJST 230754Z AUTO 09014G24KT 1 3/4SM BR OVC002 07/07 A2955 RMK AO2 PK WND 09026/0740 SLP007 T00670067 TSNO
KJST 230749Z AUTO 10013G26KT 1 1/2SM BR OVC002 07/07 A2955 RMK AO2 PK WND 09026/0740 TSNO
KJST 230741Z AUTO 09015G26KT 2SM BR OVC002 07/07 A2955 RMK AO2 PK WND 09026/0740 T00670067 TSNO
KJST 230654Z AUTO 10015G25KT 1 1/4SM BR OVC002 07/07 A2955 RMK AO2 RAE13 SLP006 P0001 T00670067 TSNO
KJST 230637Z AUTO 10011G18KT 1 3/4SM BR OVC002 07/07 A2955 RMK AO2 RAE13 P0001 T00670067 TSNO
KJST 230623Z AUTO 10011G21KT 4SM BR OVC002 07/07 A2955 RMK AO2 RAE13 P0001 T00670067 TSNO
KJST 230554Z AUTO 09015G25KT 2 1/2SM -RA BR OVC002 07/07 A2956 RMK AO2 RAE43B49 SLP011 P0000 60001 T00670067 10078 20061 58008 TSNO
KJST 230544Z AUTO 10010G21KT 8SM OVC004 07/07 A2956 RMK AO2 RAE43 CIG 002V006 P0000 T00670067 TSNO
KJST 230454Z AUTO 10012G19KT 10SM -RA OVC007 07/07 A2958 RMK AO2 CIG 005V009 SLP016 P0000 T00670067 401440061 TSNO
KJST 230425Z AUTO 10010G15KT 8SM -RA SCT004 OVC008 07/07 A2958 RMK AO2 P0000 T00670067 TSNO
KJST 230406Z AUTO 09009KT 3SM -RA BR OVC003 06/06 A2958 RMK AO2 P0000 T00610061 TSNO
KJST 230357Z AUTO 09009G15KT 1 3/4SM -RA BR OVC003 06/06 A2958 RMK AO2 P0000 T00610061 TSNO
KJST 230354Z AUTO 10008KT 2SM -RA BR OVC002 06/06 A2959 RMK AO2 RAB16 SLP025 P0001 T00610061 TSNO
KJST 230350Z AUTO 09008KT 3SM -RA BR OVC002 07/07 A2959 RMK AO2 RAB16 P0001 TSNO
KJST 230332Z AUTO 08011G17KT 1SM -RA BR VV002 07/07 A2958 RMK AO2 RAB16 P0001 T00670067 TSNO
KJST 230306Z AUTO 10008KT 1/4SM FG VV002 07/07 A2959 RMK AO2 T00670067 TSNO
KJST 230254Z AUTO 09009KT 1/2SM FG VV002 07/07 A2959 RMK AO2 SLP022 T00670067 58002 TSNO
KJST 230242Z AUTO 11009G19KT 1/2SM FG VV002 07/07 A2959 RMK AO2 T00720072 TSNO
KJST 230214Z AUTO 09009KT 1 3/4SM BR OVC002 07/07 A2957 RMK AO2 T00720067 TSNO
KJST 230154Z AUTO 11010G17KT 9SM OVC003 07/07 A2958 RMK AO2 SLP023 T00720067 TSNO
KJST 230143Z AUTO 11007KT 9SM BKN003 OVC009 07/07 A2959 RMK AO2 T00720067 TSNO
KJST 230130Z AUTO 09008KT 10SM BKN005 OVC011 07/07 A2959 RMK AO2 CIG 003V008 T00720067 TSNO
KJST 230112Z AUTO 09005KT 10SM BKN010 OVC100 07/07 A2960 RMK AO2 CIG 006V012 T00720067 TSNO
KJST 230101Z AUTO 07004KT 10SM FEW007 SCT012 BKN100 07/06 A2960 RMK AO2 T00670061 TSNO
KJST 230054Z AUTO 05005KT 10SM BKN100 07/06 A2960 RMK AO2 SLP030 T00720061 TSNO
KJST 222354Z AUTO 07005KT 10SM OVC090 08/07 A2959 RMK AO2 SLP028 T00780067 10144 20078 51007 TSNO
KJST 222254Z AUTO 00000KT 10SM OVC080 09/07 A2959 RMK AO2 SLP027 T00890072 TSNO
KJST 222154Z AUTO 06005KT 10SM OVC080 09/07 A2957 RMK AO2 SLP017 T00940072 TSNO